createdAt,value
2019-01-31T00:00:10.088Z,80.00
2019-01-31T00:02:52.967Z,80.00
2019-01-31T00:05:27.364Z,80.00
2019-01-31T00:08:07.555Z,80.00
2019-01-31T00:10:45.036Z,80.30
2019-01-31T00:16:19.016Z,80.40
2019-01-31T00:18:56.032Z,80.30
2019-01-31T00:21:30.080Z,80.40
2019-01-31T00:24:16.386Z,80.50
2019-01-31T00:27:09.040Z,80.60
2019-01-31T00:29:46.480Z,80.60
2019-01-31T00:32:20.637Z,80.90
2019-01-31T00:35:00.987Z,81.10
2019-01-31T00:37:56.468Z,80.90
2019-01-31T00:40:51.677Z,80.80
2019-01-31T00:43:29.311Z,80.60
2019-01-31T00:46:03.549Z,80.90
2019-01-31T00:48:38.049Z,80.60
2019-01-31T00:51:10.420Z,80.50
2019-01-31T00:53:47.584Z,80.60
2019-01-31T00:56:35.853Z,80.50
2019-01-31T00:59:09.964Z,80.90
2019-01-31T01:01:58.159Z,80.80
2019-01-31T01:07:33.969Z,80.80
2019-01-31T01:10:23.218Z,80.60
2019-01-31T01:13:11.323Z,80.90
2019-01-31T01:16:03.875Z,81.00
2019-01-31T01:18:41.417Z,81.10
2019-01-31T01:21:21.515Z,81.20
2019-01-31T01:24:01.905Z,81.10
2019-01-31T01:26:44.658Z,81.20
2019-01-31T01:29:27.784Z,81.20
2019-01-31T01:32:10.548Z,81.20
2019-01-31T01:40:19.049Z,81.00
2019-01-31T01:43:02.274Z,80.90
2019-01-31T01:45:53.415Z,81.00
2019-01-31T01:48:30.676Z,80.90
2019-01-31T01:51:10.509Z,80.90
2019-01-31T01:53:45.009Z,81.00
2019-01-31T01:56:31.529Z,80.80
2019-01-31T01:59:08.525Z,81.10
2019-01-31T02:06:47.663Z,81.10
2019-01-31T02:09:30.233Z,80.90
2019-01-31T02:12:04.159Z,81.20
2019-01-31T02:14:56.747Z,81.10
2019-01-31T02:18:03.012Z,81.20
2019-01-31T02:20:37.213Z,80.90
2019-01-31T02:26:14.401Z,81.00
2019-01-31T02:31:24.322Z,80.60
2019-01-31T02:34:19.697Z,80.60
2019-01-31T02:37:00.075Z,80.90
2019-01-31T02:39:43.289Z,80.60
2019-01-31T02:42:26.638Z,80.80
2019-01-31T02:47:51.427Z,80.90
2019-01-31T02:55:43.345Z,81.00
2019-01-31T03:00:59.183Z,81.10
2019-01-31T03:03:48.955Z,81.30
2019-01-31T03:06:26.209Z,81.40
2019-01-31T03:09:20.604Z,81.60
2019-01-31T03:17:10.816Z,81.80
2019-01-31T03:19:48.396Z,81.90
2019-01-31T03:22:38.664Z,81.90
2019-01-31T03:25:34.263Z,82.10
2019-01-31T03:28:35.888Z,82.30
2019-01-31T03:31:26.993Z,82.70
2019-01-31T03:34:13.440Z,82.90
2019-01-31T03:37:01.291Z,82.80
2019-01-31T03:39:39.186Z,82.80
2019-01-31T03:42:13.560Z,82.70
2019-01-31T03:44:50.819Z,82.50
2019-01-31T03:47:28.637Z,82.60
2019-01-31T03:50:12.120Z,82.80
2019-01-31T03:52:49.144Z,82.90
2019-01-31T03:55:26.344Z,82.80
2019-01-31T03:58:18.751Z,82.70
2019-01-31T04:01:02.040Z,82.50
2019-01-31T04:03:45.543Z,82.30
2019-01-31T04:06:16.536Z,82.30
2019-01-31T04:08:44.931Z,82.10
2019-01-31T04:11:13.344Z,82.40
2019-01-31T04:13:41.749Z,82.10
2019-01-31T04:16:10.140Z,82.10
2019-01-31T04:18:38.565Z,82.00
2019-01-31T04:21:07.103Z,82.00
2019-01-31T04:23:35.499Z,82.10
2019-01-31T04:26:05.621Z,82.60
2019-01-31T04:28:34.024Z,82.90
2019-01-31T04:31:02.447Z,83.20
2019-01-31T04:33:30.841Z,83.40
2019-01-31T04:35:59.257Z,83.40
2019-01-31T04:38:27.653Z,83.50
2019-01-31T04:40:56.060Z,83.50
2019-01-31T04:43:24.470Z,83.50
2019-01-31T04:45:52.874Z,83.70
2019-01-31T04:48:21.320Z,83.70
2019-01-31T04:50:49.748Z,83.50
2019-01-31T04:53:18.162Z,83.30
2019-01-31T04:55:46.565Z,83.10
2019-01-31T04:58:14.978Z,83.20
2019-01-31T05:03:30.791Z,83.00
2019-01-31T05:05:59.209Z,82.70
2019-01-31T05:10:57.412Z,82.40
2019-01-31T05:13:25.819Z,82.40
2019-01-31T05:15:54.779Z,82.40
2019-01-31T05:20:51.246Z,82.50
2019-01-31T05:23:19.656Z,82.70
2019-01-31T05:25:48.049Z,82.30
2019-01-31T05:28:16.468Z,82.00
2019-01-31T05:33:13.039Z,82.30
2019-01-31T05:35:41.444Z,82.30
2019-01-31T05:38:09.919Z,82.40
2019-01-31T05:40:38.346Z,82.40
2019-01-31T05:43:06.759Z,82.40
2019-01-31T05:45:35.163Z,82.60
2019-01-31T05:48:03.582Z,82.40
2019-01-31T05:50:31.978Z,82.40
2019-01-31T05:53:00.413Z,82.30
2019-01-31T05:55:28.828Z,82.60
2019-01-31T05:57:57.234Z,82.70
2019-01-31T06:00:30.072Z,82.80
2019-01-31T06:02:58.475Z,82.70
2019-01-31T06:07:54.955Z,82.10
2019-01-31T06:12:51.444Z,82.50
2019-01-31T06:17:47.985Z,82.50
2019-01-31T06:20:19.473Z,82.50
2019-01-31T06:22:47.876Z,82.10
2019-01-31T06:25:16.283Z,82.00
2019-01-31T06:30:15.447Z,81.80
2019-01-31T06:32:43.846Z,82.10
2019-01-31T06:35:13.200Z,82.00
2019-01-31T06:37:41.600Z,82.00
2019-01-31T06:40:15.946Z,82.00
2019-01-31T06:42:44.335Z,82.30
2019-01-31T06:45:15.561Z,82.40
2019-01-31T06:47:43.957Z,82.50
2019-01-31T06:50:12.442Z,82.40
2019-01-31T06:52:40.841Z,82.40
2019-01-31T06:55:11.289Z,82.50
2019-01-31T06:57:39.686Z,82.60
2019-01-31T07:00:13.932Z,82.70
2019-01-31T07:02:42.329Z,82.70
2019-01-31T07:05:10.883Z,82.90
2019-01-31T07:10:21.777Z,82.70
2019-01-31T07:12:50.177Z,82.60
2019-01-31T07:15:18.592Z,82.50
2019-01-31T07:17:47.053Z,81.90
2019-01-31T07:20:17.202Z,81.90
2019-01-31T07:22:46.068Z,81.90
2019-01-31T07:27:49.700Z,82.40
2019-01-31T07:30:22.780Z,82.30
2019-01-31T07:32:51.176Z,81.80
2019-01-31T07:35:19.737Z,81.40
2019-01-31T07:37:48.131Z,81.70
2019-01-31T07:40:19.282Z,81.80
2019-01-31T07:42:47.744Z,81.50
2019-01-31T07:45:30.651Z,81.30
2019-01-31T07:50:27.472Z,80.80
2019-01-31T07:52:56.216Z,81.00
2019-01-31T07:55:24.640Z,80.80
2019-01-31T07:57:53.036Z,80.60
2019-01-31T08:00:23.280Z,80.30
2019-01-31T08:02:51.743Z,80.30
2019-01-31T08:05:22.759Z,80.30
2019-01-31T08:07:53.005Z,80.30
2019-01-31T08:10:24.147Z,79.90
2019-01-31T08:12:52.624Z,79.70
2019-01-31T08:15:21.037Z,79.70
2019-01-31T08:17:49.442Z,79.50
2019-01-31T08:20:19.795Z,79.40
2019-01-31T08:22:48.261Z,79.10
2019-01-31T08:25:24.270Z,78.60
2019-01-31T08:27:53.695Z,78.40
2019-01-31T08:32:54.996Z,79.20
2019-01-31T08:35:23.481Z,79.40
2019-01-31T08:37:51.953Z,78.70
2019-01-31T08:40:20.431Z,78.60
2019-01-31T08:42:48.837Z,78.70
2019-01-31T08:45:17.237Z,79.20
2019-01-31T08:47:45.640Z,79.60
2019-01-31T08:50:22.392Z,79.60
2019-01-31T08:52:50.870Z,79.10
2019-01-31T08:55:19.407Z,77.50
2019-01-31T08:57:47.894Z,78.30
2019-01-31T09:00:21.594Z,78.60
2019-01-31T09:02:49.999Z,78.70
2019-01-31T09:05:18.604Z,78.50
2019-01-31T09:07:47.285Z,77.80
2019-01-31T09:10:21.261Z,77.80
2019-01-31T09:12:49.805Z,77.70
2019-01-31T09:15:21.039Z,77.30
2019-01-31T09:17:49.455Z,77.20
2019-01-31T09:20:23.857Z,77.10
2019-01-31T09:23:16.070Z,76.00
2019-01-31T09:25:50.429Z,75.10
2019-01-31T09:28:36.731Z,75.60
2019-01-31T09:31:08.208Z,75.80
2019-01-31T09:33:59.124Z,75.40
2019-01-31T09:41:48.856Z,74.50
2019-01-31T09:44:23.247Z,74.20
2019-01-31T09:47:18.689Z,73.90
2019-01-31T09:50:07.218Z,73.20
2019-01-31T09:52:57.905Z,73.40
2019-01-31T09:55:54.684Z,72.60
2019-01-31T09:58:41.111Z,72.50
2019-01-31T10:01:35.335Z,71.60
2019-01-31T10:04:27.264Z,71.80
2019-01-31T10:07:03.147Z,71.90
2019-01-31T10:09:49.570Z,71.60
2019-01-31T10:12:51.346Z,71.00
2019-01-31T10:18:13.360Z,70.10
2019-01-31T10:20:56.839Z,70.20
2019-01-31T10:23:36.877Z,69.80
2019-01-31T10:26:29.053Z,68.10
2019-01-31T10:29:24.857Z,69.00
2019-01-31T10:32:18.968Z,68.30
2019-01-31T10:37:52.873Z,68.40
2019-01-31T10:40:36.160Z,67.20
2019-01-31T10:43:07.650Z,67.00
2019-01-31T10:45:41.718Z,66.30
2019-01-31T10:48:22.208Z,65.50
2019-01-31T10:51:10.196Z,65.40
2019-01-31T10:53:50.392Z,65.50
2019-01-31T10:56:36.764Z,65.50
2019-01-31T10:59:17.216Z,64.40
2019-01-31T11:01:57.657Z,64.00
2019-01-31T11:04:44.224Z,64.10
2019-01-31T11:07:30.484Z,63.00
2019-01-31T11:13:05.046Z,61.20
2019-01-31T11:15:41.921Z,60.90
2019-01-31T11:18:37.760Z,60.20
2019-01-31T11:23:53.954Z,59.90
2019-01-31T11:26:43.267Z,61.40
2019-01-31T11:29:26.531Z,62.70
2019-01-31T11:34:42.505Z,64.40
2019-01-31T11:37:30.344Z,64.40
2019-01-31T11:42:53.900Z,65.50
2019-01-31T11:45:57.171Z,66.80
2019-01-31T11:48:37.464Z,66.10
2019-01-31T11:51:37.221Z,66.20
2019-01-31T11:54:20.684Z,66.10
2019-01-31T11:57:05.495Z,66.70
2019-01-31T12:01:58.880Z,66.50
2019-01-31T12:04:27.283Z,66.80
2019-01-31T12:06:55.676Z,66.90
2019-01-31T12:09:24.068Z,66.80
2019-01-31T12:11:52.618Z,66.60
2019-01-31T12:16:49.087Z,65.10
2019-01-31T12:19:17.476Z,65.90
2019-01-31T12:24:16.534Z,65.90
2019-01-31T12:26:44.140Z,66.30
2019-01-31T12:29:12.532Z,66.20
2019-01-31T12:31:41.008Z,66.80
2019-01-31T12:34:09.400Z,66.00
2019-01-31T12:36:37.819Z,65.90
2019-01-31T12:39:08.351Z,65.50
2019-01-31T12:41:36.744Z,65.60
2019-01-31T12:44:05.225Z,65.70
2019-01-31T12:46:33.696Z,65.50
2019-01-31T12:49:02.141Z,65.50
2019-01-31T12:51:30.614Z,65.10
2019-01-31T12:56:27.108Z,64.80
2019-01-31T13:01:23.584Z,65.70
2019-01-31T13:03:51.988Z,65.40
2019-01-31T13:06:20.385Z,65.50
2019-01-31T13:08:48.843Z,66.20
2019-01-31T13:11:17.311Z,64.90
2019-01-31T13:13:46.397Z,65.40
2019-01-31T13:16:14.984Z,64.70
2019-01-31T13:18:43.391Z,65.50
2019-01-31T13:21:12.828Z,65.70
2019-01-31T13:23:41.232Z,66.30
2019-01-31T13:26:09.700Z,66.80
2019-01-31T13:28:38.122Z,66.20
2019-01-31T13:31:06.877Z,66.50
2019-01-31T13:33:35.284Z,66.60
2019-01-31T13:36:05.208Z,67.00
2019-01-31T13:41:01.693Z,67.10
2019-01-31T13:45:58.171Z,67.30
2019-01-31T13:48:26.661Z,66.60
2019-01-31T13:50:55.056Z,66.70
2019-01-31T13:53:23.465Z,67.40
2019-01-31T13:55:51.863Z,67.50
2019-01-31T13:58:20.303Z,67.00
2019-01-31T14:00:48.700Z,67.60
2019-01-31T14:03:17.164Z,67.50
2019-01-31T14:05:45.639Z,67.60
2019-01-31T14:08:14.076Z,68.20
2019-01-31T14:10:42.504Z,68.50
2019-01-31T14:13:11.536Z,68.70
2019-01-31T14:15:40.082Z,68.80
2019-01-31T14:18:08.471Z,68.60
2019-01-31T14:20:36.943Z,68.80
2019-01-31T14:23:05.776Z,68.90
2019-01-31T14:25:34.193Z,69.10
2019-01-31T14:28:02.585Z,69.40
2019-01-31T14:30:33.489Z,69.00
2019-01-31T14:33:02.336Z,69.00
2019-01-31T14:35:31.383Z,69.00
2019-01-31T14:37:59.781Z,69.00
2019-01-31T14:40:28.247Z,68.80
2019-01-31T14:42:56.708Z,69.00
2019-01-31T14:45:25.654Z,69.10
2019-01-31T14:47:55.830Z,69.00
2019-01-31T14:50:29.812Z,69.00
2019-01-31T14:52:58.272Z,69.00
2019-01-31T14:55:26.676Z,69.10
2019-01-31T14:57:55.068Z,69.10
2019-01-31T15:00:26.194Z,69.10
2019-01-31T15:05:22.730Z,69.20
2019-01-31T15:10:25.604Z,69.00
2019-01-31T15:15:22.226Z,69.00
2019-01-31T15:20:37.517Z,69.00
2019-01-31T15:23:02.856Z,69.10
2019-01-31T15:25:31.252Z,69.10
2019-01-31T15:27:59.666Z,69.20
2019-01-31T15:30:33.632Z,69.40
2019-01-31T15:33:04.285Z,69.50
2019-01-31T15:35:32.706Z,70.60
2019-01-31T15:38:01.116Z,70.60
2019-01-31T15:40:38.111Z,71.00
2019-01-31T15:43:07.152Z,71.70
2019-01-31T15:45:35.575Z,71.80
2019-01-31T15:48:04.748Z,71.80
2019-01-31T15:53:22.221Z,71.70
2019-01-31T15:58:18.993Z,71.20
2019-01-31T16:00:49.420Z,70.90
2019-01-31T16:03:19.371Z,70.50
2019-01-31T16:05:47.931Z,71.20
2019-01-31T16:08:16.547Z,72.00
2019-01-31T16:10:45.122Z,72.50
2019-01-31T16:13:13.625Z,72.90
2019-01-31T16:15:42.780Z,73.30
2019-01-31T16:18:12.019Z,74.00
2019-01-31T16:20:40.965Z,74.30
2019-01-31T16:23:10.112Z,71.70
2019-01-31T16:25:38.654Z,71.50
2019-01-31T16:28:07.113Z,71.70
2019-01-31T16:33:03.778Z,71.90
2019-01-31T16:35:32.306Z,71.80
2019-01-31T16:38:00.772Z,72.10
2019-01-31T16:40:29.207Z,72.40
2019-01-31T16:42:57.668Z,72.30
2019-01-31T16:45:26.137Z,72.50
2019-01-31T16:47:54.527Z,72.80
2019-01-31T16:52:52.198Z,73.40
2019-01-31T16:55:28.472Z,73.20
2019-01-31T16:57:57.917Z,73.00
2019-01-31T17:00:33.788Z,73.40
2019-01-31T17:03:02.271Z,73.50
2019-01-31T17:08:00.632Z,74.20
2019-01-31T17:10:29.113Z,74.80
2019-01-31T17:12:57.588Z,75.50
2019-01-31T17:17:54.632Z,75.30
2019-01-31T17:20:31.840Z,75.40
2019-01-31T17:23:01.553Z,75.80
2019-01-31T17:25:30.017Z,75.20
2019-01-31T17:27:58.429Z,73.90
2019-01-31T17:30:28.668Z,73.80
2019-01-31T17:32:57.085Z,73.80
2019-01-31T17:37:53.641Z,73.50
2019-01-31T17:40:30.752Z,73.20
2019-01-31T17:42:59.160Z,73.10
2019-01-31T17:45:30.336Z,73.30
2019-01-31T17:47:59.528Z,74.10
2019-01-31T17:50:28.008Z,74.70
2019-01-31T17:55:26.316Z,75.90
2019-01-31T17:57:54.729Z,76.20
2019-01-31T18:00:30.620Z,76.90
2019-01-31T18:02:59.022Z,76.90
2019-01-31T18:05:27.408Z,76.60
2019-01-31T18:07:55.818Z,75.40
2019-01-31T18:10:24.272Z,74.90
2019-01-31T18:12:52.680Z,74.90
2019-01-31T18:15:21.080Z,75.20
2019-01-31T18:17:49.494Z,74.90
2019-01-31T18:22:49.929Z,74.90
2019-01-31T18:25:18.317Z,74.50
2019-01-31T18:30:20.544Z,74.90
2019-01-31T18:32:49.025Z,75.40
2019-01-31T18:35:17.502Z,75.70
2019-01-31T18:37:45.995Z,76.50
2019-01-31T18:40:19.835Z,77.00
2019-01-31T18:42:48.257Z,77.20
2019-01-31T18:45:19.584Z,77.30
2019-01-31T18:47:48.060Z,77.10
2019-01-31T18:50:19.407Z,77.00
2019-01-31T18:55:15.965Z,77.20
2019-01-31T18:57:44.359Z,77.00
2019-01-31T19:02:43.512Z,76.90
2019-01-31T19:05:12.048Z,76.90
2019-01-31T19:07:40.566Z,77.00
2019-01-31T19:10:11.105Z,77.20
2019-01-31T19:12:39.515Z,77.20
2019-01-31T19:15:10.988Z,77.30
2019-01-31T19:17:39.404Z,77.50
2019-01-31T19:20:13.499Z,78.00
2019-01-31T19:22:41.929Z,77.80
2019-01-31T19:25:10.779Z,77.60
2019-01-31T19:27:39.198Z,77.20
2019-01-31T19:30:28.651Z,77.60
2019-01-31T19:32:57.140Z,77.40
2019-01-31T19:38:01.585Z,78.10
2019-01-31T19:40:27.085Z,78.20
2019-01-31T19:45:32.588Z,78.40
2019-01-31T19:48:01.102Z,78.50
2019-01-31T19:50:29.629Z,78.50
2019-01-31T19:55:26.108Z,77.40
2019-01-31T19:57:54.516Z,77.00
2019-01-31T20:00:25.157Z,76.60
2019-01-31T20:02:53.649Z,76.20
2019-01-31T20:05:22.194Z,76.50
2019-01-31T20:07:50.656Z,76.50
2019-01-31T20:10:27.613Z,76.10
2019-01-31T20:12:56.454Z,75.80
2019-01-31T20:15:25.212Z,75.60
2019-01-31T20:17:53.614Z,75.60
2019-01-31T20:28:12.952Z,75.40
2019-01-31T20:30:41.430Z,75.30
2019-01-31T20:33:10.068Z,75.40
2019-01-31T20:35:38.682Z,75.40
2019-01-31T20:38:07.140Z,75.60
2019-01-31T20:40:37.893Z,75.60
2019-01-31T20:43:07.130Z,75.60
2019-01-31T20:45:35.881Z,75.60
2019-01-31T20:48:04.914Z,75.60
2019-01-31T20:50:35.681Z,75.80
2019-01-31T20:55:32.493Z,75.60
2019-01-31T20:58:00.907Z,76.00
2019-01-31T21:00:37.784Z,75.50
2019-01-31T21:08:04.233Z,75.90
2019-01-31T21:10:32.652Z,75.90
2019-01-31T21:13:01.216Z,75.80
2019-01-31T21:15:29.801Z,76.00
2019-01-31T21:17:58.197Z,76.10
2019-01-31T21:20:26.971Z,76.20
2019-01-31T21:22:55.731Z,76.50
2019-01-31T21:25:24.384Z,76.30
2019-01-31T21:27:52.848Z,76.80
2019-01-31T21:35:22.656Z,76.70
2019-01-31T21:37:51.066Z,76.90
2019-01-31T21:40:21.409Z,77.00
2019-01-31T21:42:49.980Z,77.10
2019-01-31T21:47:48.080Z,77.10
2019-01-31T21:50:21.865Z,77.40
2019-01-31T21:52:50.262Z,76.80
2019-01-31T21:57:46.975Z,76.70
2019-01-31T22:00:21.382Z,76.90
2019-01-31T22:02:49.968Z,76.80
2019-01-31T22:07:46.580Z,77.10
2019-01-31T22:10:21.007Z,76.90
2019-01-31T22:12:49.676Z,76.90
2019-01-31T22:15:26.556Z,77.00
2019-01-31T22:17:58.043Z,76.90
2019-01-31T22:22:53.854Z,76.90
2019-01-31T22:25:23.288Z,77.00
2019-01-31T22:27:51.760Z,76.90
2019-01-31T22:30:25.837Z,77.10
2019-01-31T22:32:54.304Z,77.20
2019-01-31T22:35:22.864Z,77.10
2019-01-31T22:37:51.450Z,77.00
2019-01-31T22:40:20.089Z,77.00
2019-01-31T22:42:48.500Z,77.20
2019-01-31T22:45:19.688Z,77.10
2019-01-31T22:47:48.379Z,77.20
2019-01-31T22:50:18.885Z,76.90
2019-01-31T22:52:47.361Z,77.00
2019-01-31T22:55:17.896Z,76.90
2019-01-31T23:05:36.417Z,77.40
2019-01-31T23:08:05.071Z,77.30
2019-01-31T23:10:33.495Z,77.00
2019-01-31T23:13:01.949Z,77.10
2019-01-31T23:15:30.349Z,77.30
2019-01-31T23:17:58.772Z,77.40
2019-01-31T23:20:27.166Z,77.60
2019-01-31T23:22:55.580Z,77.80
2019-01-31T23:27:52.149Z,77.30
2019-01-31T23:32:48.709Z,77.10
2019-01-31T23:35:17.116Z,76.90
2019-01-31T23:37:45.520Z,77.50
2019-01-31T23:40:14.868Z,77.40
2019-01-31T23:42:43.289Z,77.70
2019-01-31T23:45:14.760Z,78.20
2019-01-31T23:47:49.024Z,78.30
2019-01-31T23:52:41.603Z,78.20
2019-01-31T23:57:39.361Z,78.00
